sensor_id;sensor_type;location;lat;lon;timestamp;pressure;altitude;pressure_sealevel;temperature;humidity
23166;BME280;11751;42.700;24.170;2022-11-04T00:01:41;94177.78;;;10.22;nan
23166;BME280;11751;42.700;24.170;2022-11-04T00:04:08;94176.84;;;10.20;nan
23166;BME280;11751;42.700;24.170;2022-11-04T00:06:34;94181.69;;;10.19;nan
23166;BME280;11751;42.700;24.170;2022-11-04T00:08:59;94177.63;;;10.27;nan
23166;BME280;11751;42.700;24.170;2022-11-04T00:11:26;94185.66;;;10.31;nan
23166;BME280;11751;42.700;24.170;2022-11-04T00:14:11;94177.06;;;10.22;nan
23166;BME280;11751;42.700;24.170;2022-11-04T00:16:36;94174.41;;;10.16;nan
23166;BME280;11751;42.700;24.170;2022-11-04T00:19:20;94169.34;;;10.15;nan
23166;BME280;11751;42.700;24.170;2022-11-04T00:21:46;94167.31;;;10.15;nan
23166;BME280;11751;42.700;24.170;2022-11-04T00:24:30;94168.63;;;10.14;nan
23166;BME280;11751;42.700;24.170;2022-11-04T00:27:17;94177.38;;;10.11;nan
23166;BME280;11751;42.700;24.170;2022-11-04T00:30:05;94171.31;;;9.99;nan
23166;BME280;11751;42.700;24.170;2022-11-04T00:32:32;94167.78;;;9.99;nan
23166;BME280;11751;42.700;24.170;2022-11-04T00:35:16;94163.78;;;9.87;nan
23166;BME280;11751;42.700;24.170;2022-11-04T00:37:43;94164.22;;;9.70;nan
23166;BME280;11751;42.700;24.170;2022-11-04T00:40:13;94156.97;;;9.75;nan
23166;BME280;11751;42.700;24.170;2022-11-04T00:42:39;94155.88;;;9.78;nan
23166;BME280;11751;42.700;24.170;2022-11-04T00:45:07;94151.91;;;9.66;nan
23166;BME280;11751;42.700;24.170;2022-11-04T00:47:32;94152.06;;;9.60;nan
23166;BME280;11751;42.700;24.170;2022-11-04T00:49:58;94159.19;;;9.69;nan
23166;BME280;11751;42.700;24.170;2022-11-04T00:52:23;94144.13;;;9.72;nan
23166;BME280;11751;42.700;24.170;2022-11-04T00:54:48;94148.00;;;9.69;nan
23166;BME280;11751;42.700;24.170;2022-11-04T00:57:14;94148.06;;;9.76;nan
23166;BME280;11751;42.700;24.170;2022-11-04T00:59:40;94150.25;;;9.70;nan
23166;BME280;11751;42.700;24.170;2022-11-04T01:02:08;94154.34;;;9.69;nan
23166;BME280;11751;42.700;24.170;2022-11-04T01:04:34;94140.53;;;9.64;nan
23166;BME280;11751;42.700;24.170;2022-11-04T01:07:00;94135.13;;;9.66;nan
23166;BME280;11751;42.700;24.170;2022-11-04T01:09:26;94134.94;;;9.64;nan
23166;BME280;11751;42.700;24.170;2022-11-04T01:11:51;94130.84;;;9.65;nan
23166;BME280;11751;42.700;24.170;2022-11-04T01:14:17;94127.66;;;9.61;nan
23166;BME280;11751;42.700;24.170;2022-11-04T01:16:42;94139.72;;;9.56;nan
23166;BME280;11751;42.700;24.170;2022-11-04T01:19:09;94135.63;;;9.57;nan
23166;BME280;11751;42.700;24.170;2022-11-04T01:21:34;94122.94;;;9.56;nan
23166;BME280;11751;42.700;24.170;2022-11-04T01:24:00;94129.47;;;9.51;nan
23166;BME280;11751;42.700;24.170;2022-11-04T01:26:26;94129.66;;;9.53;nan
23166;BME280;11751;42.700;24.170;2022-11-04T01:28:53;94127.03;;;9.55;nan
23166;BME280;11751;42.700;24.170;2022-11-04T01:31:21;94136.41;;;9.57;nan
23166;BME280;11751;42.700;24.170;2022-11-04T01:33:49;94130.75;;;9.50;nan
23166;BME280;11751;42.700;24.170;2022-11-04T01:36:14;94124.81;;;9.53;nan
23166;BME280;11751;42.700;24.170;2022-11-04T01:38:40;94126.25;;;9.47;nan
23166;BME280;11751;42.700;24.170;2022-11-04T01:41:06;94118.78;;;9.42;nan
23166;BME280;11751;42.700;24.170;2022-11-04T01:43:51;94122.09;;;9.40;nan
23166;BME280;11751;42.700;24.170;2022-11-04T01:51:42;94120.06;;;9.13;nan
23166;BME280;11751;42.700;24.170;2022-11-04T01:54:09;94121.97;;;8.98;nan
23166;BME280;11751;42.700;24.170;2022-11-04T01:56:36;94118.84;;;9.01;nan
23166;BME280;11751;42.700;24.170;2022-11-04T01:59:07;94103.88;;;8.91;nan
23166;BME280;11751;42.700;24.170;2022-11-04T02:01:34;94112.97;;;8.92;nan
23166;BME280;11751;42.700;24.170;2022-11-04T02:04:00;94109.03;;;8.87;nan
23166;BME280;11751;42.700;24.170;2022-11-04T02:06:46;94114.72;;;8.74;nan
23166;BME280;11751;42.700;24.170;2022-11-04T02:09:13;94110.34;;;8.66;nan
23166;BME280;11751;42.700;24.170;2022-11-04T02:11:38;94105.09;;;8.62;nan
23166;BME280;11751;42.700;24.170;2022-11-04T02:14:22;94101.72;;;8.56;nan
23166;BME280;11751;42.700;24.170;2022-11-04T02:16:48;94095.69;;;8.52;nan
23166;BME280;11751;42.700;24.170;2022-11-04T02:21:58;94093.38;;;8.44;nan
23166;BME280;11751;42.700;24.170;2022-11-04T02:25:13;94087.00;;;8.36;nan
23166;BME280;11751;42.700;24.170;2022-11-04T02:30:20;94095.63;;;8.12;nan
23166;BME280;11751;42.700;24.170;2022-11-04T02:36:03;94088.19;;;8.14;nan
23166;BME280;11751;42.700;24.170;2022-11-04T02:49:11;94105.72;;;8.02;nan
23166;BME280;11751;42.700;24.170;2022-11-04T02:52:01;94088.72;;;7.92;nan
23166;BME280;11751;42.700;24.170;2022-11-04T02:54:41;94083.72;;;7.78;nan
23166;BME280;11751;42.700;24.170;2022-11-04T02:57:12;94078.53;;;7.82;nan
23166;BME280;11751;42.700;24.170;2022-11-04T02:59:47;94080.03;;;7.83;nan
23166;BME280;11751;42.700;24.170;2022-11-04T03:02:26;94077.03;;;7.81;nan
23166;BME280;11751;42.700;24.170;2022-11-04T03:04:55;94077.38;;;7.77;nan
23166;BME280;11751;42.700;24.170;2022-11-04T03:07:25;94070.00;;;7.67;nan
23166;BME280;11751;42.700;24.170;2022-11-04T03:09:56;94071.06;;;7.77;nan
23166;BME280;11751;42.700;24.170;2022-11-04T03:12:28;94079.63;;;7.79;nan
23166;BME280;11751;42.700;24.170;2022-11-04T03:15:00;94074.03;;;7.79;nan
23166;BME280;11751;42.700;24.170;2022-11-04T03:17:38;94077.47;;;7.85;nan
23166;BME280;11751;42.700;24.170;2022-11-04T03:20:15;94075.97;;;7.84;nan
23166;BME280;11751;42.700;24.170;2022-11-04T03:22:43;94067.50;;;7.76;nan
23166;BME280;11751;42.700;24.170;2022-11-04T03:25:09;94074.03;;;7.79;nan
23166;BME280;11751;42.700;24.170;2022-11-04T03:27:48;94082.22;;;7.77;nan
23166;BME280;11751;42.700;24.170;2022-11-04T03:30:18;94083.28;;;7.74;nan
23166;BME280;11751;42.700;24.170;2022-11-04T03:33:02;94086.91;;;7.69;nan
23166;BME280;11751;42.700;24.170;2022-11-04T03:35:29;94084.19;;;7.56;nan
23166;BME280;11751;42.700;24.170;2022-11-04T03:37:56;94080.50;;;7.61;nan
23166;BME280;11751;42.700;24.170;2022-11-04T03:40:22;94081.06;;;7.60;nan
23166;BME280;11751;42.700;24.170;2022-11-04T03:42:52;94086.53;;;7.65;nan
23166;BME280;11751;42.700;24.170;2022-11-04T03:45:22;94075.38;;;7.65;nan
23166;BME280;11751;42.700;24.170;2022-11-04T03:47:48;94076.66;;;7.64;nan
23166;BME280;11751;42.700;24.170;2022-11-04T03:50:27;94082.84;;;7.70;nan
23166;BME280;11751;42.700;24.170;2022-11-04T03:52:53;94077.94;;;7.63;nan
23166;BME280;11751;42.700;24.170;2022-11-04T03:55:19;94070.88;;;7.62;nan
23166;BME280;11751;42.700;24.170;2022-11-04T03:57:54;94073.03;;;7.56;nan
23166;BME280;11751;42.700;24.170;2022-11-04T04:00:22;94081.06;;;7.60;nan
23166;BME280;11751;42.700;24.170;2022-11-04T04:02:57;94090.06;;;7.53;nan
23166;BME280;11751;42.700;24.170;2022-11-04T04:08:43;94068.34;;;7.25;nan
23166;BME280;11751;42.700;24.170;2022-11-04T04:11:22;94076.91;;;7.27;nan
23166;BME280;11751;42.700;24.170;2022-11-04T04:14:19;94080.75;;;7.24;nan
23166;BME280;11751;42.700;24.170;2022-11-04T04:17:19;94072.41;;;6.98;nan
23166;BME280;11751;42.700;24.170;2022-11-04T04:20:09;94073.25;;;6.93;nan
23166;BME280;11751;42.700;24.170;2022-11-04T04:22:48;94064.16;;;6.80;nan
23166;BME280;11751;42.700;24.170;2022-11-04T04:25:16;94065.78;;;6.88;nan
23166;BME280;11751;42.700;24.170;2022-11-04T04:28:01;94068.84;;;6.72;nan
23166;BME280;11751;42.700;24.170;2022-11-04T04:30:28;94076.91;;;6.88;nan
23166;BME280;11751;42.700;24.170;2022-11-04T04:32:57;94070.47;;;6.93;nan
23166;BME280;11751;42.700;24.170;2022-11-04T04:35:28;94071.53;;;6.90;nan
23166;BME280;11751;42.700;24.170;2022-11-04T04:38:07;94074.97;;;6.83;nan
23166;BME280;11751;42.700;24.170;2022-11-04T04:41:05;94068.66;;;6.83;nan
23166;BME280;11751;42.700;24.170;2022-11-04T04:43:51;94072.16;;;6.71;nan
23166;BME280;11751;42.700;24.170;2022-11-04T04:46:37;94086.94;;;6.78;nan
23166;BME280;11751;42.700;24.170;2022-11-04T04:49:08;94068.53;;;6.76;nan
23166;BME280;11751;42.700;24.170;2022-11-04T04:51:38;94085.00;;;6.74;nan
23166;BME280;11751;42.700;24.170;2022-11-04T04:54:05;94072.16;;;6.71;nan
23166;BME280;11751;42.700;24.170;2022-11-04T04:56:30;94082.84;;;6.67;nan
23166;BME280;11751;42.700;24.170;2022-11-04T04:58:55;94076.75;;;6.68;nan
23166;BME280;11751;42.700;24.170;2022-11-04T05:01:21;94080.28;;;6.69;nan
23166;BME280;11751;42.700;24.170;2022-11-04T05:03:47;94083.91;;;6.64;nan
23166;BME280;11751;42.700;24.170;2022-11-04T05:06:12;94090.56;;;6.61;nan
23166;BME280;11751;42.700;24.170;2022-11-04T05:08:38;94084.31;;;6.55;nan
23166;BME280;11751;42.700;24.170;2022-11-04T05:11:03;94095.22;;;6.53;nan
23166;BME280;11751;42.700;24.170;2022-11-04T05:13:29;94090.44;;;6.53;nan
23166;BME280;11751;42.700;24.170;2022-11-04T05:16:06;94090.09;;;6.57;nan
23166;BME280;11751;42.700;24.170;2022-11-04T05:18:32;94087.09;;;6.55;nan
23166;BME280;11751;42.700;24.170;2022-11-04T05:21:01;94094.81;;;6.62;nan
23166;BME280;11751;42.700;24.170;2022-11-04T05:23:26;94094.53;;;6.65;nan
23166;BME280;11751;42.700;24.170;2022-11-04T05:25:52;94098.03;;;6.66;nan
23166;BME280;11751;42.700;24.170;2022-11-04T05:28:17;94093.03;;;6.77;nan
23166;BME280;11751;42.700;24.170;2022-11-04T05:30:43;94087.59;;;6.84;nan
23166;BME280;11751;42.700;24.170;2022-11-04T05:33:08;94090.16;;;6.82;nan
23166;BME280;11751;42.700;24.170;2022-11-04T05:35:34;94102.81;;;6.96;nan
23166;BME280;11751;42.700;24.170;2022-11-04T05:37:59;94106.00;;;7.00;nan
23166;BME280;11751;42.700;24.170;2022-11-04T05:40:25;94105.16;;;6.92;nan
23166;BME280;11751;42.700;24.170;2022-11-04T05:42:50;94107.97;;;7.05;nan
23166;BME280;11751;42.700;24.170;2022-11-04T05:45:16;94102.69;;;7.15;nan
23166;BME280;11751;42.700;24.170;2022-11-04T05:47:41;94115.69;;;7.25;nan
23166;BME280;11751;42.700;24.170;2022-11-04T05:50:07;94110.13;;;7.25;nan
23166;BME280;11751;42.700;24.170;2022-11-04T05:52:32;94108.94;;;7.34;nan
23166;BME280;11751;42.700;24.170;2022-11-04T05:54:58;94111.81;;;7.41;nan
23166;BME280;11751;42.700;24.170;2022-11-04T05:57:23;94121.03;;;7.49;nan
23166;BME280;11751;42.700;24.170;2022-11-04T05:59:49;94116.84;;;7.56;nan
23166;BME280;11751;42.700;24.170;2022-11-04T06:02:14;94124.34;;;7.61;nan
23166;BME280;11751;42.700;24.170;2022-11-04T06:04:39;94130.56;;;7.66;nan
23166;BME280;11751;42.700;24.170;2022-11-04T06:07:05;94124.13;;;7.71;nan
23166;BME280;11751;42.700;24.170;2022-11-04T06:09:31;94122.41;;;7.81;nan
23166;BME280;11751;42.700;24.170;2022-11-04T06:12:10;94134.06;;;7.80;nan
23166;BME280;11751;42.700;24.170;2022-11-04T06:14:36;94124.97;;;7.79;nan
23166;BME280;11751;42.700;24.170;2022-11-04T06:17:02;94125.72;;;7.80;nan
23166;BME280;11751;42.700;24.170;2022-11-04T06:19:28;94120.91;;;7.80;nan
23166;BME280;11751;42.700;24.170;2022-11-04T06:21:54;94127.75;;;7.92;nan
23166;BME280;11751;42.700;24.170;2022-11-04T06:24:19;94134.63;;;7.91;nan
23166;BME280;11751;42.700;24.170;2022-11-04T06:26:44;94143.69;;;8.05;nan
23166;BME280;11751;42.700;24.170;2022-11-04T06:29:10;94132.50;;;8.18;nan
23166;BME280;11751;42.700;24.170;2022-11-04T06:31:38;94129.53;;;8.16;nan
23166;BME280;11751;42.700;24.170;2022-11-04T06:34:04;94134.44;;;8.23;nan
23166;BME280;11751;42.700;24.170;2022-11-04T06:36:29;94126.41;;;8.19;nan
23166;BME280;11751;42.700;24.170;2022-11-04T06:38:54;94129.22;;;8.40;nan
23166;BME280;11751;42.700;24.170;2022-11-04T06:41:20;94117.09;;;8.50;nan
23166;BME280;11751;42.700;24.170;2022-11-04T06:43:45;94125.09;;;8.53;nan
23166;BME280;11751;42.700;24.170;2022-11-04T06:46:33;94130.44;;;8.64;nan
23166;BME280;11751;42.700;24.170;2022-11-04T06:49:00;94124.91;;;8.72;nan
23166;BME280;11751;42.700;24.170;2022-11-04T06:51:26;94131.38;;;8.87;nan
23166;BME280;11751;42.700;24.170;2022-11-04T06:53:51;94124.00;;;8.97;nan
23166;BME280;11751;42.700;24.170;2022-11-04T06:56:17;94124.91;;;8.92;nan
23166;BME280;11751;42.700;24.170;2022-11-04T06:58:43;94123.66;;;9.21;nan
23166;BME280;11751;42.700;24.170;2022-11-04T07:01:11;94118.81;;;9.22;nan
23166;BME280;11751;42.700;24.170;2022-11-04T07:03:36;94123.06;;;9.43;nan
23166;BME280;11751;42.700;24.170;2022-11-04T07:06:06;94111.78;;;9.56;nan
23166;BME280;11751;42.700;24.170;2022-11-04T07:08:32;94114.47;;;9.69;nan
23166;BME280;11751;42.700;24.170;2022-11-04T07:10:58;94116.78;;;9.85;nan
23166;BME280;11751;42.700;24.170;2022-11-04T07:13:23;94115.56;;;10.01;nan
23166;BME280;11751;42.700;24.170;2022-11-04T07:15:49;94099.22;;;10.13;nan
23166;BME280;11751;42.700;24.170;2022-11-04T07:18:14;94100.19;;;10.30;nan
23166;BME280;11751;42.700;24.170;2022-11-04T07:20:40;94102.50;;;10.46;nan
23166;BME280;11751;42.700;24.170;2022-11-04T07:23:05;94094.06;;;10.39;nan
23166;BME280;11751;42.700;24.170;2022-11-04T07:25:30;94095.41;;;10.53;nan
23166;BME280;11751;42.700;24.170;2022-11-04T07:27:56;94096.75;;;10.74;nan
23166;BME280;11751;42.700;24.170;2022-11-04T07:30:21;94095.84;;;10.79;nan
23166;BME280;11751;42.700;24.170;2022-11-04T07:32:47;94096.41;;;11.00;nan
23166;BME280;11751;42.700;24.170;2022-11-04T07:35:13;94093.59;;;11.15;nan
23166;BME280;11751;42.700;24.170;2022-11-04T07:37:38;94089.50;;;11.16;nan
23166;BME280;11751;42.700;24.170;2022-11-04T07:40:05;94086.13;;;11.25;nan
23166;BME280;11751;42.700;24.170;2022-11-04T07:42:31;94082.00;;;11.41;nan
23166;BME280;11751;42.700;24.170;2022-11-04T07:44:57;94073.78;;;11.58;nan
23166;BME280;11751;42.700;24.170;2022-11-04T07:47:22;94069.63;;;11.74;nan
23166;BME280;11751;42.700;24.170;2022-11-04T07:49:48;94065.28;;;11.88;nan
23166;BME280;11751;42.700;24.170;2022-11-04T07:52:13;94069.22;;;11.85;nan
23166;BME280;11751;42.700;24.170;2022-11-04T07:54:39;94067.63;;;12.06;nan
23166;BME280;11751;42.700;24.170;2022-11-04T07:57:04;94069.09;;;12.14;nan
23166;BME280;11751;42.700;24.170;2022-11-04T07:59:29;94069.38;;;12.33;nan
23166;BME280;11751;42.700;24.170;2022-11-04T08:01:55;94055.53;;;12.35;nan
23166;BME280;11751;42.700;24.170;2022-11-04T08:04:20;94045.38;;;12.40;nan
23166;BME280;11751;42.700;24.170;2022-11-04T08:06:46;94045.25;;;12.62;nan
23166;BME280;11751;42.700;24.170;2022-11-04T08:09:11;94052.38;;;12.63;nan
23166;BME280;11751;42.700;24.170;2022-11-04T08:11:37;94038.38;;;12.80;nan
23166;BME280;11751;42.700;24.170;2022-11-04T08:14:03;94046.84;;;13.04;nan
23166;BME280;11751;42.700;24.170;2022-11-04T08:16:29;94038.53;;;13.14;nan
23166;BME280;11751;42.700;24.170;2022-11-04T08:18:54;94027.53;;;13.25;nan
23166;BME280;11751;42.700;24.170;2022-11-04T08:21:26;94024.66;;;13.33;nan
23166;BME280;11751;42.700;24.170;2022-11-04T08:23:52;94016.06;;;13.31;nan
23166;BME280;11751;42.700;24.170;2022-11-04T08:26:19;94013.59;;;13.35;nan
23166;BME280;11751;42.700;24.170;2022-11-04T08:28:45;94018.22;;;13.57;nan
23166;BME280;11751;42.700;24.170;2022-11-04T08:33:44;94008.03;;;13.95;nan
23166;BME280;11751;42.700;24.170;2022-11-04T08:36:13;93989.72;;;14.03;nan
23166;BME280;11751;42.700;24.170;2022-11-04T08:38:39;94005.03;;;14.27;nan
23166;BME280;11751;42.700;24.170;2022-11-04T08:41:06;93997.06;;;14.33;nan
23166;BME280;11751;42.700;24.170;2022-11-04T08:43:32;93988.13;;;14.27;nan
23166;BME280;11751;42.700;24.170;2022-11-04T08:45:59;93999.78;;;14.40;nan
23166;BME280;11751;42.700;24.170;2022-11-04T08:48:25;93999.72;;;14.57;nan
23166;BME280;11751;42.700;24.170;2022-11-04T08:50:53;93982.34;;;14.51;nan
23166;BME280;11751;42.700;24.170;2022-11-04T08:53:19;93982.16;;;14.75;nan
23166;BME280;11751;42.700;24.170;2022-11-04T08:55:44;93986.91;;;14.82;nan
23166;BME280;11751;42.700;24.170;2022-11-04T08:58:10;93979.34;;;14.85;nan
23166;BME280;11751;42.700;24.170;2022-11-04T09:00:36;93980.00;;;14.93;nan
23166;BME280;11751;42.700;24.170;2022-11-04T09:03:01;93973.66;;;15.11;nan
23166;BME280;11751;42.700;24.170;2022-11-04T09:05:27;93973.44;;;15.26;nan
23166;BME280;11751;42.700;24.170;2022-11-04T09:07:53;93976.13;;;15.43;nan
23166;BME280;11751;42.700;24.170;2022-11-04T09:10:19;93969.44;;;15.39;nan
23166;BME280;11751;42.700;24.170;2022-11-04T09:12:45;93961.72;;;15.30;nan
23166;BME280;11751;42.700;24.170;2022-11-04T09:15:11;93963.22;;;15.40;nan
23166;BME280;11751;42.700;24.170;2022-11-04T09:17:36;93959.66;;;15.58;nan
23166;BME280;11751;42.700;24.170;2022-11-04T09:20:03;93947.34;;;15.54;nan
23166;BME280;11751;42.700;24.170;2022-11-04T09:22:29;93949.41;;;15.53;nan
23166;BME280;11751;42.700;24.170;2022-11-04T09:24:55;93947.03;;;15.69;nan
23166;BME280;11751;42.700;24.170;2022-11-04T09:27:21;93944.94;;;15.79;nan
23166;BME280;11751;42.700;24.170;2022-11-04T09:29:46;93949.25;;;16.08;nan
23166;BME280;11751;42.700;24.170;2022-11-04T09:32:11;93944.03;;;16.14;nan
23166;BME280;11751;42.700;24.170;2022-11-04T09:34:37;93944.75;;;16.24;nan
23166;BME280;11751;42.700;24.170;2022-11-04T09:37:02;93940.28;;;16.21;nan
23166;BME280;11751;42.700;24.170;2022-11-04T09:39:28;93941.50;;;16.37;nan
23166;BME280;11751;42.700;24.170;2022-11-04T09:41:59;93934.47;;;16.47;nan
23166;BME280;11751;42.700;24.170;2022-11-04T09:44:43;93937.19;;;16.36;nan
23166;BME280;11751;42.700;24.170;2022-11-04T09:47:12;93928.22;;;16.49;nan
23166;BME280;11751;42.700;24.170;2022-11-04T09:49:41;93924.47;;;16.56;nan
23166;BME280;11751;42.700;24.170;2022-11-04T09:52:23;93917.72;;;16.70;nan
23166;BME280;11751;42.700;24.170;2022-11-04T09:57:22;93913.38;;;16.79;nan
23166;BME280;11751;42.700;24.170;2022-11-04T09:59:48;93905.28;;;16.85;nan
23166;BME280;11751;42.700;24.170;2022-11-04T10:08:28;93900.19;;;16.93;nan
23166;BME280;11751;42.700;24.170;2022-11-04T10:26:59;93868.69;;;17.70;nan
23166;BME280;11751;42.700;24.170;2022-11-04T10:29:40;93863.53;;;17.78;nan
23166;BME280;11751;42.700;24.170;2022-11-04T10:34:43;93862.72;;;17.87;nan
23166;BME280;11751;42.700;24.170;2022-11-04T10:37:11;93856.38;;;17.77;nan
23166;BME280;11751;42.700;24.170;2022-11-04T10:39:42;93852.22;;;18.10;nan
23166;BME280;11751;42.700;24.170;2022-11-04T10:42:11;93850.28;;;18.36;nan
23166;BME280;11751;42.700;24.170;2022-11-04T10:44:37;93838.94;;;18.36;nan
23166;BME280;11751;42.700;24.170;2022-11-04T10:52:14;93825.53;;;18.25;nan
23166;BME280;11751;42.700;24.170;2022-11-04T10:54:45;93819.00;;;18.34;nan
23166;BME280;11751;42.700;24.170;2022-11-04T10:57:13;93814.19;;;18.36;nan
23166;BME280;11751;42.700;24.170;2022-11-04T10:59:57;93811.66;;;18.08;nan
23166;BME280;11751;42.700;24.170;2022-11-04T11:07:45;93796.28;;;18.91;nan
23166;BME280;11751;42.700;24.170;2022-11-04T11:10:23;93793.44;;;18.91;nan
23166;BME280;11751;42.700;24.170;2022-11-04T11:12:51;93790.69;;;19.04;nan
23166;BME280;11751;42.700;24.170;2022-11-04T11:15:26;93780.13;;;18.93;nan
23166;BME280;11751;42.700;24.170;2022-11-04T11:18:11;93791.84;;;18.99;nan
23166;BME280;11751;42.700;24.170;2022-11-04T11:20:37;93789.88;;;19.13;nan
23166;BME280;11751;42.700;24.170;2022-11-04T11:23:31;93780.34;;;18.97;nan
23166;BME280;11751;42.700;24.170;2022-11-04T11:25:58;93771.34;;;19.12;nan
23166;BME280;11751;42.700;24.170;2022-11-04T11:28:24;93775.69;;;19.38;nan
23166;BME280;11751;42.700;24.170;2022-11-04T11:30:57;93775.00;;;19.26;nan
23166;BME280;11751;42.700;24.170;2022-11-04T11:33:32;93767.97;;;19.27;nan
23166;BME280;11751;42.700;24.170;2022-11-04T11:38:36;93757.63;;;19.45;nan
23166;BME280;11751;42.700;24.170;2022-11-04T11:41:12;93743.69;;;19.49;nan
23166;BME280;11751;42.700;24.170;2022-11-04T11:43:45;93747.53;;;19.67;nan
23166;BME280;11751;42.700;24.170;2022-11-04T11:46:21;93735.16;;;19.74;nan
23166;BME280;11751;42.700;24.170;2022-11-04T11:48:52;93727.69;;;19.80;nan
23166;BME280;11751;42.700;24.170;2022-11-04T11:51:27;93721.28;;;19.80;nan
23166;BME280;11751;42.700;24.170;2022-11-04T11:54:14;93729.34;;;19.97;nan
23166;BME280;11751;42.700;24.170;2022-11-04T11:56:43;93719.47;;;19.98;nan
23166;BME280;11751;42.700;24.170;2022-11-04T11:59:43;93709.84;;;19.91;nan
23166;BME280;11751;42.700;24.170;2022-11-04T12:02:33;93714.09;;;20.04;nan
23166;BME280;11751;42.700;24.170;2022-11-04T12:05:00;93712.75;;;20.05;nan
23166;BME280;11751;42.700;24.170;2022-11-04T12:13:01;93701.19;;;19.89;nan
23166;BME280;11751;42.700;24.170;2022-11-04T12:15:40;93705.56;;;20.04;nan
23166;BME280;11751;42.700;24.170;2022-11-04T12:21:18;93695.09;;;19.81;nan
23166;BME280;11751;42.700;24.170;2022-11-04T12:23:58;93695.38;;;19.74;nan
23166;BME280;11751;42.700;24.170;2022-11-04T12:26:38;93689.00;;;19.87;nan
23166;BME280;11751;42.700;24.170;2022-11-04T12:29:31;93690.16;;;19.82;nan
23166;BME280;11751;42.700;24.170;2022-11-04T12:34:34;93682.66;;;19.75;nan
23166;BME280;11751;42.700;24.170;2022-11-04T12:42:18;93670.41;;;19.59;nan
23166;BME280;11751;42.700;24.170;2022-11-04T12:47:36;93675.03;;;19.66;nan
23166;BME280;11751;42.700;24.170;2022-11-04T12:55:44;93665.41;;;19.84;nan
23166;BME280;11751;42.700;24.170;2022-11-04T13:01:06;93658.97;;;19.71;nan
23166;BME280;11751;42.700;24.170;2022-11-04T13:06:26;93648.66;;;19.77;nan
23166;BME280;11751;42.700;24.170;2022-11-04T13:09:08;93650.16;;;19.78;nan
23166;BME280;11751;42.700;24.170;2022-11-04T13:11:58;93653.94;;;19.82;nan
23166;BME280;11751;42.700;24.170;2022-11-04T13:14:32;93649.91;;;19.74;nan
23166;BME280;11751;42.700;24.170;2022-11-04T13:17:05;93669.84;;;19.49;nan
23166;BME280;11751;42.700;24.170;2022-11-04T13:19:33;93665.19;;;19.42;nan
23166;BME280;11751;42.700;24.170;2022-11-04T13:22:06;93666.28;;;19.24;nan
23166;BME280;11751;42.700;24.170;2022-11-04T13:24:36;93658.47;;;18.99;nan
23166;BME280;11751;42.700;24.170;2022-11-04T13:27:08;93663.91;;;18.95;nan
23166;BME280;11751;42.700;24.170;2022-11-04T13:29:38;93678.84;;;18.85;nan
23166;BME280;11751;42.700;24.170;2022-11-04T13:32:22;93671.59;;;18.82;nan
23166;BME280;11751;42.700;24.170;2022-11-04T13:35:03;93676.44;;;18.68;nan
23166;BME280;11751;42.700;24.170;2022-11-04T13:37:43;93664.97;;;18.66;nan
23166;BME280;11751;42.700;24.170;2022-11-04T13:40:19;93666.63;;;18.57;nan
23166;BME280;11751;42.700;24.170;2022-11-04T13:45:58;93660.78;;;18.67;nan
23166;BME280;11751;42.700;24.170;2022-11-04T13:48:29;93660.31;;;18.59;nan
23166;BME280;11751;42.700;24.170;2022-11-04T13:50:59;93664.50;;;18.69;nan
23166;BME280;11751;42.700;24.170;2022-11-04T13:53:47;93658.13;;;18.46;nan
23166;BME280;11751;42.700;24.170;2022-11-04T13:56:31;93662.06;;;18.52;nan
23166;BME280;11751;42.700;24.170;2022-11-04T14:01:43;93669.34;;;18.21;nan
23166;BME280;11751;42.700;24.170;2022-11-04T14:06:59;93674.44;;;18.00;nan
23166;BME280;11751;42.700;24.170;2022-11-04T14:12:24;93673.91;;;17.69;nan
23166;BME280;11751;42.700;24.170;2022-11-04T14:15:00;93662.81;;;17.61;nan
23166;BME280;11751;42.700;24.170;2022-11-04T14:27:56;93665.88;;;17.42;nan
23166;BME280;11751;42.700;24.170;2022-11-04T14:32:55;93654.41;;;17.40;nan
23166;BME280;11751;42.700;24.170;2022-11-04T14:35:22;93651.41;;;17.27;nan
23166;BME280;11751;42.700;24.170;2022-11-04T14:37:51;93655.88;;;17.41;nan
23166;BME280;11751;42.700;24.170;2022-11-04T14:40:27;93660.06;;;17.40;nan
23166;BME280;11751;42.700;24.170;2022-11-04T14:42:54;93672.63;;;17.37;nan
23166;BME280;11751;42.700;24.170;2022-11-04T14:45:25;93658.53;;;17.16;nan
23166;BME280;11751;42.700;24.170;2022-11-04T14:47:56;93665.81;;;16.99;nan
23166;BME280;11751;42.700;24.170;2022-11-04T14:50:26;93660.16;;;16.99;nan
23166;BME280;11751;42.700;24.170;2022-11-04T14:52:57;93647.13;;;16.94;nan
23166;BME280;11751;42.700;24.170;2022-11-04T14:55:27;93659.78;;;16.93;nan
23166;BME280;11751;42.700;24.170;2022-11-04T14:58:12;93642.88;;;16.51;nan
23166;BME280;11751;42.700;24.170;2022-11-04T15:03:15;93646.50;;;16.42;nan
23166;BME280;11751;42.700;24.170;2022-11-04T15:06:02;93657.44;;;16.36;nan
23166;BME280;11751;42.700;24.170;2022-11-04T15:08:37;93671.00;;;16.28;nan
23166;BME280;11751;42.700;24.170;2022-11-04T15:11:11;93664.44;;;16.05;nan
23166;BME280;11751;42.700;24.170;2022-11-04T15:13:49;93656.25;;;15.78;nan
23166;BME280;11751;42.700;24.170;2022-11-04T15:18:40;93658.78;;;15.74;nan
23166;BME280;11751;42.700;24.170;2022-11-04T15:21:07;93669.06;;;15.70;nan
23166;BME280;11751;42.700;24.170;2022-11-04T15:24:01;93666.72;;;15.66;nan
23166;BME280;11751;42.700;24.170;2022-11-04T15:26:31;93674.38;;;15.45;nan
23166;BME280;11751;42.700;24.170;2022-11-04T15:28:59;93666.25;;;15.21;nan
23166;BME280;11751;42.700;24.170;2022-11-04T15:31:28;93673.22;;;15.20;nan
23166;BME280;11751;42.700;24.170;2022-11-04T15:33:58;93667.19;;;14.95;nan
23166;BME280;11751;42.700;24.170;2022-11-04T15:36:27;93663.34;;;15.00;nan
23166;BME280;11751;42.700;24.170;2022-11-04T15:39:06;93674.00;;;15.11;nan
23166;BME280;11751;42.700;24.170;2022-11-04T15:41:33;93683.22;;;14.92;nan
23166;BME280;11751;42.700;24.170;2022-11-04T15:44:23;93679.66;;;14.92;nan